createdAt,value
2022-08-01T00:01:59.343Z,20.63
2022-08-01T00:04:25.983Z,20.62
2022-08-01T00:06:52.515Z,20.57
2022-08-01T00:09:24.204Z,20.60
2022-08-01T00:12:06.585Z,20.56
2022-08-01T00:14:33.128Z,20.51
2022-08-01T00:17:03.940Z,20.47
2022-08-01T00:19:33.964Z,20.44
2022-08-01T00:22:00.621Z,20.43
2022-08-01T00:24:27.165Z,20.42
2022-08-01T00:26:53.668Z,20.42
2022-08-01T00:30:11.410Z,20.41
2022-08-01T00:32:07.310Z,20.40
2022-08-01T00:34:34.558Z,20.37
2022-08-01T00:37:01.163Z,20.33
2022-08-01T00:39:27.656Z,20.36
2022-08-01T00:41:59.632Z,20.36
2022-08-01T00:44:27.244Z,20.30
2022-08-01T00:46:53.902Z,20.29
2022-08-01T00:49:20.550Z,20.24
2022-08-01T00:51:47.225Z,20.19
2022-08-01T00:54:16.818Z,20.16
2022-08-01T00:56:43.882Z,20.21
2022-08-01T00:59:10.574Z,20.20
2022-08-01T01:01:39.544Z,20.22
2022-08-01T01:04:08.550Z,20.18
2022-08-01T01:06:42.287Z,20.15
2022-08-01T01:09:17.441Z,20.10
2022-08-01T01:12:12.732Z,20.12
2022-08-01T01:14:56.280Z,20.13
2022-08-01T01:17:49.424Z,20.11
2022-08-01T01:20:16.467Z,20.14
2022-08-01T01:22:49.357Z,20.11
2022-08-01T01:25:40.213Z,20.09
2022-08-01T01:28:10.076Z,20.10
2022-08-01T01:30:38.398Z,20.06
2022-08-01T01:33:07.223Z,20.09
2022-08-01T01:35:36.744Z,20.08
2022-08-01T01:38:10.515Z,20.02
2022-08-01T01:40:37.947Z,20.01
2022-08-01T01:43:05.737Z,19.93
2022-08-01T01:45:32.871Z,19.95
2022-08-01T01:47:59.855Z,19.89
2022-08-01T01:50:28.816Z,19.85
2022-08-01T01:52:56.234Z,19.81
2022-08-01T01:55:23.131Z,19.81
2022-08-01T01:57:51.214Z,19.78
2022-08-01T02:00:17.896Z,19.75
2022-08-01T02:02:45.643Z,19.70
2022-08-01T02:05:13.792Z,19.68
2022-08-01T02:07:41.325Z,19.66
2022-08-01T02:10:09.701Z,19.67
2022-08-01T02:12:39.121Z,19.68
2022-08-01T02:15:06.571Z,19.70
2022-08-01T02:17:38.882Z,19.73
2022-08-01T02:20:06.467Z,19.75
2022-08-01T02:22:42.095Z,19.69
2022-08-01T02:25:32.460Z,19.68
2022-08-01T02:28:28.217Z,19.68
2022-08-01T02:30:59.715Z,19.70
2022-08-01T02:33:37.317Z,19.72
2022-08-01T02:36:31.474Z,19.66
2022-08-01T02:38:51.540Z,19.67
2022-08-01T02:41:20.708Z,19.65
2022-08-01T02:43:53.085Z,19.60
2022-08-01T02:46:28.099Z,19.57
2022-08-01T02:48:56.807Z,19.57
2022-08-01T02:51:24.540Z,19.57
2022-08-01T02:53:51.434Z,19.56
2022-08-01T02:56:18.845Z,19.54
2022-08-01T02:58:45.979Z,19.55
2022-08-01T03:01:13.387Z,19.51
2022-08-01T03:03:40.384Z,19.48
2022-08-01T03:06:07.675Z,19.45
2022-08-01T03:08:36.057Z,19.40
2022-08-01T03:11:03.017Z,19.39
2022-08-01T03:13:30.477Z,19.34
2022-08-01T03:15:57.343Z,19.34
2022-08-01T03:18:26.057Z,19.35
2022-08-01T03:20:55.450Z,19.32
2022-08-01T03:23:22.334Z,19.35
2022-08-01T03:26:04.207Z,19.30
2022-08-01T03:28:31.284Z,19.24
2022-08-01T03:30:59.368Z,19.24
2022-08-01T03:33:25.962Z,19.21
2022-08-01T03:35:54.747Z,19.19
2022-08-01T03:38:24.593Z,19.19
2022-08-01T03:41:04.092Z,19.17
2022-08-01T03:43:37.704Z,19.19
2022-08-01T03:46:09.000Z,19.23
2022-08-01T03:48:39.480Z,19.22
2022-08-01T03:51:06.670Z,19.20
2022-08-01T03:53:33.527Z,19.18
2022-08-01T03:56:01.804Z,19.15
2022-08-01T03:58:29.932Z,19.13
2022-08-01T04:00:57.130Z,19.10
2022-08-01T04:03:24.533Z,19.08
2022-08-01T04:05:51.496Z,19.05
2022-08-01T04:08:18.016Z,19.05
2022-08-01T04:10:44.570Z,19.08
2022-08-01T04:13:11.088Z,19.08
2022-08-01T04:15:37.682Z,19.05
2022-08-01T04:18:04.250Z,19.04
2022-08-01T04:20:30.824Z,19.02
2022-08-01T04:22:57.296Z,19.02
2022-08-01T04:25:31.059Z,18.99
2022-08-01T04:27:58.313Z,19.00
2022-08-01T04:30:27.667Z,19.03
2022-08-01T04:32:55.789Z,19.02
2022-08-01T04:36:03.006Z,19.06
2022-08-01T04:38:13.731Z,19.11
2022-08-01T04:40:42.084Z,19.16
2022-08-01T04:43:08.713Z,19.18
2022-08-01T04:45:36.140Z,19.23
2022-08-01T04:48:03.031Z,19.25
2022-08-01T04:50:29.658Z,19.28
2022-08-01T04:52:56.948Z,19.31
2022-08-01T04:55:23.448Z,19.37
2022-08-01T04:57:50.074Z,19.39
2022-08-01T05:00:20.171Z,19.42
2022-08-01T05:02:47.560Z,19.43
2022-08-01T05:05:14.102Z,19.43
2022-08-01T05:07:45.101Z,19.43
2022-08-01T05:10:12.533Z,19.43
2022-08-01T05:12:39.038Z,19.43
2022-08-01T05:15:11.736Z,19.46
2022-08-01T05:17:43.053Z,19.47
2022-08-01T05:20:10.550Z,19.48
2022-08-01T05:22:37.501Z,19.52
2022-08-01T05:25:05.866Z,19.54
2022-08-01T05:27:32.630Z,19.53
2022-08-01T05:30:00.587Z,19.59
2022-08-01T05:32:28.150Z,19.60
2022-08-01T05:34:54.700Z,19.63
2022-08-01T05:37:21.452Z,19.67
2022-08-01T05:39:47.935Z,19.69
2022-08-01T05:42:14.471Z,19.74
2022-08-01T05:44:41.005Z,19.82
2022-08-01T05:47:07.589Z,19.88
2022-08-01T05:49:34.254Z,19.94
2022-08-01T05:52:02.947Z,19.97
2022-08-01T05:54:29.926Z,20.00
2022-08-01T05:57:00.496Z,20.02
2022-08-01T05:59:27.325Z,20.00
2022-08-01T06:01:53.925Z,20.00
2022-08-01T06:04:20.565Z,20.01
2022-08-01T06:06:47.493Z,20.00
2022-08-01T06:09:14.130Z,19.99
2022-08-01T06:11:40.671Z,20.03
2022-08-01T06:14:07.226Z,20.07
2022-08-01T06:16:33.673Z,20.27
2022-08-01T06:19:00.241Z,20.28
2022-08-01T06:21:26.792Z,20.26
2022-08-01T06:23:53.317Z,20.35
2022-08-01T06:26:20.306Z,20.38
2022-08-01T06:28:46.912Z,20.41
2022-08-01T06:31:14.711Z,20.40
2022-08-01T06:33:41.228Z,20.36
2022-08-01T06:36:07.717Z,20.36
2022-08-01T06:38:34.272Z,20.41
2022-08-01T06:41:00.784Z,20.49
2022-08-01T06:43:27.448Z,20.55
2022-08-01T06:45:54.016Z,20.67
2022-08-01T06:48:20.536Z,20.70
2022-08-01T06:50:47.049Z,20.82
2022-08-01T06:53:13.615Z,20.88
2022-08-01T06:55:40.197Z,20.93
2022-08-01T06:58:06.675Z,21.01
2022-08-01T07:00:33.199Z,20.97
2022-08-01T07:03:00.529Z,21.04
2022-08-01T07:05:27.224Z,21.05
2022-08-01T07:07:53.836Z,21.13
2022-08-01T07:10:20.416Z,21.11
2022-08-01T07:12:46.909Z,21.14
2022-08-01T07:15:13.563Z,21.19
2022-08-01T07:17:41.402Z,21.22
2022-08-01T07:20:10.543Z,21.29
2022-08-01T07:22:37.985Z,21.36
2022-08-01T07:25:06.814Z,21.45
2022-08-01T07:27:33.838Z,21.58
2022-08-01T07:30:00.346Z,21.73
2022-08-01T07:32:26.932Z,21.78
2022-08-01T07:34:53.412Z,21.81
2022-08-01T07:37:47.869Z,21.84
2022-08-01T07:40:06.984Z,21.75
2022-08-01T07:42:33.514Z,21.75
2022-08-01T07:45:00.106Z,21.94
2022-08-01T07:47:27.053Z,21.83
2022-08-01T07:50:00.312Z,21.78
2022-08-01T07:52:27.936Z,21.71
2022-08-01T07:54:54.602Z,21.79
2022-08-01T07:57:21.036Z,21.84
2022-08-01T07:59:47.747Z,22.01
2022-08-01T08:02:14.457Z,22.14
2022-08-01T08:04:44.584Z,22.04
2022-08-01T08:07:13.560Z,21.99
2022-08-01T08:09:40.039Z,21.98
2022-08-01T08:12:07.659Z,22.09
2022-08-01T08:14:34.875Z,22.24
2022-08-01T08:17:01.854Z,22.24
2022-08-01T08:19:37.570Z,22.30
2022-08-01T08:22:04.866Z,22.42
2022-08-01T08:24:31.593Z,22.53
2022-08-01T08:27:00.399Z,22.50
2022-08-01T08:29:28.220Z,22.46
2022-08-01T08:31:55.791Z,22.42
2022-08-01T08:34:23.547Z,22.45
2022-08-01T08:36:50.308Z,22.53
2022-08-01T08:39:17.649Z,22.67
2022-08-01T08:41:49.100Z,22.55
2022-08-01T08:44:17.136Z,22.60
2022-08-01T08:46:53.337Z,22.52
2022-08-01T08:49:22.532Z,22.58
2022-08-01T08:51:50.820Z,22.58
2022-08-01T08:54:19.072Z,22.62
2022-08-01T08:56:46.642Z,22.62
2022-08-01T08:59:14.821Z,22.75
2022-08-01T09:01:42.295Z,22.65
2022-08-01T09:04:08.824Z,22.69
2022-08-01T09:06:35.392Z,22.69
2022-08-01T09:09:01.923Z,22.72
2022-08-01T09:11:29.076Z,22.74
2022-08-01T09:14:05.608Z,22.82
2022-08-01T09:16:32.973Z,22.86
2022-08-01T09:19:15.988Z,22.98
2022-08-01T09:22:00.485Z,23.13
2022-08-01T09:24:30.479Z,23.11
2022-08-01T09:26:58.293Z,23.16
2022-08-01T09:29:37.773Z,23.14
2022-08-01T09:32:08.397Z,23.37
2022-08-01T09:34:40.738Z,23.32
2022-08-01T09:37:08.073Z,23.22
2022-08-01T09:39:41.052Z,23.14
2022-08-01T09:42:29.171Z,23.07
2022-08-01T09:44:56.152Z,23.12
2022-08-01T09:47:23.366Z,23.27
2022-08-01T09:49:59.113Z,23.28
2022-08-01T09:52:28.969Z,23.20
2022-08-01T09:55:05.341Z,23.19
2022-08-01T09:57:31.882Z,23.21
2022-08-01T10:00:01.389Z,23.28
2022-08-01T10:02:31.398Z,23.31
2022-08-01T10:05:03.332Z,23.38
2022-08-01T10:07:42.986Z,23.42
2022-08-01T10:10:14.954Z,23.40
2022-08-01T10:12:45.220Z,23.28
2022-08-01T10:15:14.282Z,23.20
2022-08-01T10:17:51.037Z,23.25
2022-08-01T10:20:29.933Z,23.20
2022-08-01T10:23:00.226Z,23.22
2022-08-01T10:25:42.208Z,23.42
2022-08-01T10:28:24.188Z,23.50
2022-08-01T10:30:52.157Z,23.51
2022-08-01T10:33:50.487Z,23.72
2022-08-01T10:36:09.664Z,23.62
2022-08-01T10:38:37.304Z,23.60
2022-08-01T10:41:06.395Z,23.66
2022-08-01T10:43:35.504Z,23.58
2022-08-01T10:46:03.527Z,23.69
2022-08-01T10:49:08.566Z,23.92
2022-08-01T10:51:52.871Z,23.97
2022-08-01T10:54:25.768Z,24.06
2022-08-01T10:56:52.938Z,24.15
2022-08-01T10:59:49.378Z,24.15
2022-08-01T11:02:12.317Z,24.01
2022-08-01T11:04:41.670Z,24.05
2022-08-01T11:07:25.672Z,24.03
2022-08-01T11:10:14.943Z,24.04
2022-08-01T11:12:43.903Z,24.21
2022-08-01T11:15:10.517Z,24.24
2022-08-01T11:17:42.828Z,24.18
2022-08-01T11:20:15.277Z,24.15
2022-08-01T11:23:05.016Z,24.07
2022-08-01T11:26:06.755Z,23.94
2022-08-01T11:28:32.147Z,23.82
2022-08-01T11:31:11.873Z,24.03
2022-08-01T11:33:40.601Z,24.27
2022-08-01T11:36:12.992Z,24.41
2022-08-01T11:38:46.978Z,24.56
2022-08-01T11:41:13.344Z,24.67
2022-08-01T11:44:02.149Z,24.48
2022-08-01T11:46:57.769Z,24.45
2022-08-01T11:49:48.961Z,24.47
2022-08-01T11:52:30.572Z,24.62
2022-08-01T11:55:03.010Z,24.65
2022-08-01T11:57:34.155Z,24.67
2022-08-01T12:00:24.523Z,24.81
2022-08-01T12:03:05.531Z,24.91
2022-08-01T12:05:34.704Z,24.82
2022-08-01T12:08:01.882Z,24.76
2022-08-01T12:10:36.910Z,24.53
2022-08-01T12:13:14.163Z,24.50
2022-08-01T12:15:40.716Z,24.69
2022-08-01T12:18:07.904Z,24.77
2022-08-01T12:20:40.124Z,24.83
2022-08-01T12:23:12.064Z,24.89
2022-08-01T12:25:44.658Z,25.16
2022-08-01T12:28:14.381Z,25.34
2022-08-01T12:30:41.262Z,25.48
2022-08-01T12:33:09.786Z,25.36
2022-08-01T12:35:37.815Z,25.31
2022-08-01T12:38:14.726Z,25.24
2022-08-01T12:40:45.370Z,25.13
2022-08-01T12:43:27.403Z,25.10
2022-08-01T12:45:57.769Z,25.04
2022-08-01T12:48:25.571Z,25.07
2022-08-01T12:50:58.213Z,25.06
2022-08-01T12:53:24.837Z,24.96
2022-08-01T12:55:58.092Z,25.07
2022-08-01T12:58:32.139Z,24.97
2022-08-01T13:01:12.961Z,24.89
2022-08-01T13:03:40.590Z,24.75
2022-08-01T13:06:15.932Z,24.89
2022-08-01T13:08:43.181Z,25.21
2022-08-01T13:11:14.925Z,25.29
2022-08-01T13:13:42.481Z,25.26
2022-08-01T13:16:13.510Z,25.08
2022-08-01T13:18:54.959Z,24.99
2022-08-01T13:21:21.431Z,24.91
2022-08-01T13:24:12.280Z,24.89
2022-08-01T13:26:38.653Z,25.15
2022-08-01T13:29:06.471Z,25.26
2022-08-01T13:31:34.448Z,25.33
2022-08-01T13:34:00.941Z,25.21
2022-08-01T13:36:32.026Z,25.14
2022-08-01T13:39:18.141Z,24.96
2022-08-01T13:41:45.349Z,24.81
2022-08-01T13:44:12.117Z,24.78
2022-08-01T13:46:39.545Z,24.83
2022-08-01T13:49:16.769Z,24.91
2022-08-01T13:51:43.886Z,24.94
2022-08-01T13:54:10.532Z,24.90
2022-08-01T13:56:37.074Z,24.95
2022-08-01T13:59:03.904Z,25.00
2022-08-01T14:01:34.260Z,25.03
2022-08-01T14:04:01.232Z,24.95
2022-08-01T14:06:27.798Z,25.04
2022-08-01T14:08:54.389Z,25.16
2022-08-01T14:11:21.434Z,25.37
2022-08-01T14:13:48.061Z,25.41
2022-08-01T14:16:15.066Z,25.39
2022-08-01T14:18:44.248Z,25.36
2022-08-01T14:21:11.236Z,25.25
2022-08-01T14:23:37.920Z,25.30
2022-08-01T14:26:09.976Z,25.31
2022-08-01T14:28:39.920Z,25.30
2022-08-01T14:31:09.719Z,25.34
2022-08-01T14:33:37.358Z,25.30
2022-08-01T14:36:28.506Z,25.30
2022-08-01T14:38:51.467Z,25.34
2022-08-01T14:41:17.936Z,25.28
2022-08-01T14:43:44.497Z,25.22
2022-08-01T14:46:11.360Z,25.31
2022-08-01T14:48:37.921Z,25.42
2022-08-01T14:51:05.172Z,25.42
2022-08-01T14:53:34.346Z,25.47
2022-08-01T14:56:03.708Z,25.40
2022-08-01T14:58:30.264Z,25.46
2022-08-01T15:00:59.231Z,25.54
2022-08-01T15:03:26.272Z,25.68
2022-08-01T15:05:52.800Z,25.54
2022-08-01T15:08:19.352Z,25.42
2022-08-01T15:10:45.814Z,25.33
2022-08-01T15:13:12.342Z,25.21
2022-08-01T15:15:38.941Z,25.16
2022-08-01T15:18:05.630Z,25.00
2022-08-01T15:20:32.190Z,24.84
2022-08-01T15:22:58.778Z,24.86
2022-08-01T15:25:25.315Z,25.04
2022-08-01T15:28:06.827Z,25.18
2022-08-01T15:30:34.144Z,25.23
2022-08-01T15:33:00.681Z,25.31
2022-08-01T15:35:27.201Z,25.49
2022-08-01T15:37:53.697Z,25.54
2022-08-01T15:40:20.251Z,25.53
2022-08-01T15:42:46.836Z,25.36
2022-08-01T15:45:44.574Z,25.41
2022-08-01T15:48:05.681Z,25.36
2022-08-01T15:50:32.261Z,25.36
2022-08-01T15:52:58.731Z,25.38
2022-08-01T15:55:25.297Z,25.42
2022-08-01T15:57:51.798Z,25.36
2022-08-01T16:00:18.395Z,25.37
2022-08-01T16:02:44.883Z,25.26
2022-08-01T16:05:11.455Z,25.28
2022-08-01T16:07:38.085Z,25.23
2022-08-01T16:10:24.660Z,25.10
2022-08-01T16:12:51.180Z,25.02
2022-08-01T16:15:17.816Z,24.96
2022-08-01T16:17:44.679Z,25.05
2022-08-01T16:20:11.514Z,25.01
2022-08-01T16:22:38.118Z,25.08
2022-08-01T16:25:05.333Z,25.09
2022-08-01T16:27:31.905Z,25.05
2022-08-01T16:29:58.413Z,25.01
2022-08-01T16:32:28.279Z,24.97
2022-08-01T16:34:56.355Z,25.06
2022-08-01T16:37:22.828Z,25.11
2022-08-01T16:39:49.352Z,25.09
2022-08-01T16:42:15.855Z,25.07
2022-08-01T16:44:42.901Z,25.00
2022-08-01T16:47:09.734Z,24.89
2022-08-01T16:49:36.909Z,24.92
2022-08-01T16:52:03.858Z,24.84
2022-08-01T16:54:30.528Z,24.77
2022-08-01T16:57:07.561Z,24.63
2022-08-01T16:59:35.533Z,24.53
2022-08-01T17:02:08.663Z,24.49
2022-08-01T17:04:35.219Z,24.46
2022-08-01T17:07:01.830Z,24.44
2022-08-01T17:09:28.402Z,24.39
2022-08-01T17:11:54.950Z,24.39
2022-08-01T17:14:21.963Z,24.34
2022-08-01T17:16:48.530Z,24.27
2022-08-01T17:19:15.144Z,24.22
2022-08-01T17:21:42.374Z,24.19
2022-08-01T17:24:09.833Z,24.19
2022-08-01T17:26:36.453Z,24.17
2022-08-01T17:29:03.745Z,24.16
2022-08-01T17:31:30.328Z,24.16
2022-08-01T17:33:56.837Z,24.21
2022-08-01T17:36:23.558Z,24.14
2022-08-01T17:38:50.240Z,24.15
2022-08-01T17:41:17.257Z,24.13
2022-08-01T17:43:43.801Z,24.10
2022-08-01T17:46:10.298Z,24.12
2022-08-01T17:48:36.871Z,24.09
2022-08-01T17:51:03.695Z,24.06
2022-08-01T17:53:30.371Z,24.07
2022-08-01T17:55:58.768Z,24.02
2022-08-01T17:58:49.224Z,23.90
2022-08-01T18:01:14.596Z,23.82
2022-08-01T18:03:42.084Z,23.79
2022-08-01T18:06:10.153Z,23.76
2022-08-01T18:08:40.191Z,23.63
2022-08-01T18:11:06.748Z,23.58
2022-08-01T18:13:33.744Z,23.54
2022-08-01T18:16:00.636Z,23.50
2022-08-01T18:18:33.393Z,23.44
2022-08-01T18:21:01.470Z,23.46
2022-08-01T18:23:28.132Z,23.40
2022-08-01T18:25:54.751Z,23.36
2022-08-01T18:28:31.300Z,23.34
2022-08-01T18:30:59.568Z,23.40
2022-08-01T18:33:26.059Z,23.34
2022-08-01T18:35:53.671Z,23.34
2022-08-01T18:38:24.225Z,23.38
2022-08-01T18:40:51.521Z,23.29
2022-08-01T18:43:18.078Z,23.19
2022-08-01T18:45:44.786Z,23.09
2022-08-01T18:48:11.740Z,23.04
2022-08-01T18:50:39.414Z,23.00
2022-08-01T18:53:06.054Z,22.90
2022-08-01T18:55:32.624Z,22.81
2022-08-01T18:57:59.172Z,22.76
2022-08-01T19:00:25.639Z,22.72
2022-08-01T19:02:53.055Z,22.69
2022-08-01T19:05:19.725Z,22.66
2022-08-01T19:08:05.969Z,22.63
2022-08-01T19:10:33.581Z,22.58
2022-08-01T19:13:00.884Z,22.63
2022-08-01T19:15:27.551Z,22.55
2022-08-01T19:17:54.045Z,22.57
2022-08-01T19:20:20.706Z,22.53
2022-08-01T19:22:47.199Z,22.50
2022-08-01T19:25:15.573Z,22.53
2022-08-01T19:27:47.790Z,22.55
2022-08-01T19:30:14.391Z,22.51
2022-08-01T19:32:46.234Z,22.45
2022-08-01T19:35:16.905Z,22.46
2022-08-01T19:37:47.204Z,22.43
2022-08-01T19:40:26.969Z,22.40
2022-08-01T19:42:54.862Z,22.41
2022-08-01T19:45:21.622Z,22.39
2022-08-01T19:47:52.304Z,22.39
2022-08-01T19:50:23.694Z,22.39
2022-08-01T19:52:51.993Z,22.41
2022-08-01T19:55:18.885Z,22.38
2022-08-01T19:57:59.342Z,22.33
2022-08-01T20:00:37.384Z,22.30
2022-08-01T20:03:04.791Z,22.28
2022-08-01T20:05:31.387Z,22.28
2022-08-01T20:07:58.564Z,22.25
2022-08-01T20:10:25.255Z,22.23
2022-08-01T20:18:30.206Z,22.29
2022-08-01T20:20:57.597Z,22.25
2022-08-01T20:23:24.974Z,22.21
2022-08-01T20:25:52.947Z,22.20
2022-08-01T20:28:27.104Z,22.16
2022-08-01T20:30:56.808Z,22.11
2022-08-01T20:33:23.432Z,22.07
2022-08-01T20:35:53.204Z,22.01
2022-08-01T20:38:27.612Z,22.02
2022-08-01T20:40:58.454Z,22.07
2022-08-01T20:43:27.313Z,22.03
2022-08-01T20:45:54.058Z,21.92
2022-08-01T20:48:20.933Z,21.88
2022-08-01T20:51:07.727Z,21.79
2022-08-01T20:53:40.533Z,21.70
2022-08-01T20:56:14.963Z,21.64
2022-08-01T20:58:46.371Z,21.56
2022-08-01T21:01:18.568Z,21.50
2022-08-01T21:03:55.809Z,21.48
2022-08-01T21:06:27.022Z,21.47
2022-08-01T21:08:56.439Z,21.55
2022-08-01T21:11:24.039Z,21.59
2022-08-01T21:13:51.202Z,21.52
2022-08-01T21:16:25.186Z,21.46
2022-08-01T21:19:18.021Z,21.39
2022-08-01T21:21:45.023Z,21.38
2022-08-01T21:24:19.181Z,21.36
2022-08-01T21:26:46.408Z,21.37
2022-08-01T21:29:14.140Z,21.36
2022-08-01T21:31:41.563Z,21.39
2022-08-01T21:34:08.753Z,21.40
2022-08-01T21:36:36.111Z,21.39
2022-08-01T21:39:05.004Z,21.33
2022-08-01T21:42:03.294Z,21.27
2022-08-01T21:44:18.893Z,21.25
2022-08-01T21:46:48.523Z,21.19
2022-08-01T21:49:15.133Z,21.15
2022-08-01T21:51:52.125Z,21.07
2022-08-01T21:54:34.071Z,21.03
2022-08-01T21:57:28.188Z,20.98
2022-08-01T22:00:12.727Z,20.90
2022-08-01T22:03:01.908Z,20.81
2022-08-01T22:05:40.529Z,20.77
2022-08-01T22:08:24.236Z,20.70
2022-08-01T22:10:57.116Z,20.59
2022-08-01T22:13:23.756Z,20.54
2022-08-01T22:15:50.492Z,20.50
2022-08-01T22:18:17.176Z,20.45
2022-08-01T22:20:46.858Z,20.37
2022-08-01T22:23:13.934Z,20.32
2022-08-01T22:25:41.650Z,20.26
2022-08-01T22:28:10.233Z,20.24
2022-08-01T22:30:43.014Z,20.16
2022-08-01T22:33:16.617Z,20.10
2022-08-01T22:35:55.144Z,20.06
2022-08-01T22:38:24.078Z,20.02
2022-08-01T22:40:53.835Z,19.98
2022-08-01T22:43:34.360Z,19.95
2022-08-01T22:46:16.375Z,19.96
2022-08-01T22:48:51.337Z,19.91
2022-08-01T22:51:27.514Z,19.92
2022-08-01T22:54:02.054Z,19.88
2022-08-01T22:56:30.107Z,19.87
2022-08-01T22:58:59.551Z,19.68
2022-08-01T23:01:28.263Z,19.64
2022-08-01T23:03:57.442Z,19.68
2022-08-01T23:06:35.855Z,19.62
2022-08-01T23:09:02.827Z,19.64
2022-08-01T23:11:29.703Z,19.62
2022-08-01T23:13:56.397Z,19.57
2022-08-01T23:16:23.758Z,19.55
2022-08-01T23:18:50.609Z,19.40
2022-08-01T23:21:18.109Z,19.27
2022-08-01T23:23:44.768Z,19.27
2022-08-01T23:26:11.911Z,19.32
2022-08-01T23:28:42.100Z,19.26
2022-08-01T23:31:08.711Z,19.30
2022-08-01T23:33:35.250Z,19.29
2022-08-01T23:36:01.789Z,19.30
2022-08-01T23:38:28.366Z,19.24
2022-08-01T23:40:54.866Z,19.19
2022-08-01T23:43:21.444Z,19.10
2022-08-01T23:46:03.205Z,18.97
2022-08-01T23:48:35.061Z,18.95
2022-08-01T23:51:02.600Z,18.86
2022-08-01T23:53:30.503Z,18.80
2022-08-01T23:55:58.281Z,18.77
2022-08-01T23:58:24.810Z,18.72
